LDZD/ZAD METAR and TAF weather

Enter ICAO airport designator
Station Type Date Time Source
LDZD METAR 2022/01/26 08:00 UTC NOAA

LDZD 260800Z VRB01KT 9999 BKN020 00/M00 Q1027 NOSIG


Station Type Date Time Source
LDZD Decoded METAR 2022/01/26 08:00 UTC NOAA

Zadar / Zemunik, Croatia (LDZD) 44-06N 015-21E
Jan 26, 2022 - 03:00 AM EST / 2022.01.26 0800 UTC
Wind: Variable at 1 MPH (1 KT):0
Visibility: greater than 7 mile(s):0
Sky conditions: mostly cloudy
Temperature: 32 F (0 C)
Dew Point: 32 F (0 C)
Relative Humidity: 100%
Pressure (altimeter): 30.33 in. Hg (1027 hPa)
ob: LDZD 260800Z VRB01KT 9999 BKN020 00/M00 Q1027 NOSIG
cycle: 8

Station Type Date Time Source
LDZD TAF 2022/01/26 06:27 UTC NOAA

TAF LDZD 260525Z 2606/2706 VRB02KT CAVOK TX11/2613Z TNM03/2606Z
BECMG 2610/2612 31008KT
BECMG 2616/2618 VRB02KT
BECMG 2618/2620 3000 BR
TEMPO 2621/2706 1200 BCFG PROB30 2623/2705 0300 FZFG

Example: see airport list